UAL292 KEWR-KPBI
Flight info
| Callsign | UAL292 |
|---|---|
| Flight time | N/A |
| Altitude | 36000 |
| Route | ELVAE NECCK WHITE Q409 CRPLR EARZZ Q131 WAALT Y289 DULEE CLMNT2 |
| Aircraft | A319/M-SDE3FGHIRWY/LB1 |
Departure
| Time | N/A |
|---|---|
| Airport | Newark Liberty International Airport (KEWR) |
Arrival
| Time | 2026-04-23 04:17 |
|---|---|
| Airport | Palm Beach International Airport (KPBI) |
| Time | Latitude | Longitude | Altitude | Speed | Heading |
|---|---|---|---|---|---|
| 2026-04-23 03:24 | 31.44748 | -78.64732 | 36220 ft | 456 kts | 200° |
| 2026-04-23 03:24 | 31.41747 | -78.65778 | 36225 ft | 456 kts | 200° |
| 2026-04-23 03:24 | 31.35629 | -78.67897 | 36223 ft | 455 kts | 200° |
| 2026-04-23 03:25 | 31.29588 | -78.69966 | 36202 ft | 455 kts | 199° |
| 2026-04-23 03:25 | 31.23505 | -78.72031 | 36211 ft | 455 kts | 199° |
| 2026-04-23 03:26 | 31.17428 | -78.74096 | 36215 ft | 455 kts | 199° |
| 2026-04-23 03:26 | 31.11313 | -78.76180 | 36217 ft | 455 kts | 199° |
| 2026-04-23 03:27 | 31.05280 | -78.78226 | 36218 ft | 454 kts | 199° |
| 2026-04-23 03:27 | 30.99210 | -78.80295 | 36220 ft | 454 kts | 200° |
| 2026-04-23 03:28 | 30.93156 | -78.82346 | 36232 ft | 453 kts | 200° |
| 2026-04-23 03:28 | 30.87112 | -78.84395 | 36233 ft | 452 kts | 200° |
| 2026-04-23 03:29 | 30.81074 | -78.86431 | 36234 ft | 452 kts | 200° |
| 2026-04-23 03:29 | 30.75038 | -78.88454 | 36218 ft | 451 kts | 201° |
| 2026-04-23 03:30 | 30.69025 | -78.90483 | 36248 ft | 449 kts | 201° |
| 2026-04-23 03:30 | 30.63035 | -78.92499 | 36245 ft | 447 kts | 201° |
| 2026-04-23 03:31 | 30.57067 | -78.94509 | 36251 ft | 446 kts | 201° |
| 2026-04-23 03:31 | 30.51107 | -78.96513 | 36247 ft | 446 kts | 201° |
| 2026-04-23 03:32 | 30.45158 | -78.98506 | 36236 ft | 444 kts | 201° |
| 2026-04-23 03:32 | 30.39202 | -79.00407 | 36243 ft | 445 kts | 199° |
| 2026-04-23 03:33 | 30.33161 | -79.01990 | 36240 ft | 445 kts | 198° |
| 2026-04-23 03:33 | 30.27103 | -79.03469 | 36243 ft | 445 kts | 198° |
| 2026-04-23 03:34 | 30.21066 | -79.05010 | 36233 ft | 444 kts | 198° |
| 2026-04-23 03:34 | 30.15047 | -79.06601 | 36221 ft | 444 kts | 198° |
| 2026-04-23 03:35 | 30.09021 | -79.08191 | 36215 ft | 445 kts | 198° |
| 2026-04-23 03:35 | 30.02981 | -79.09761 | 36213 ft | 445 kts | 198° |
| 2026-04-23 03:36 | 29.96974 | -79.11316 | 36214 ft | 445 kts | 198° |
| 2026-04-23 03:36 | 29.90932 | -79.12885 | 36219 ft | 445 kts | 199° |
| 2026-04-23 03:37 | 29.84901 | -79.14449 | 36224 ft | 444 kts | 199° |
| 2026-04-23 03:37 | 29.78883 | -79.16003 | 36228 ft | 443 kts | 199° |
| 2026-04-23 03:38 | 29.72868 | -79.17536 | 36224 ft | 443 kts | 198° |
| 2026-04-23 03:38 | 29.66858 | -79.19066 | 36195 ft | 442 kts | 199° |
| 2026-04-23 03:39 | 29.60859 | -79.20593 | 36220 ft | 441 kts | 199° |
| 2026-04-23 03:39 | 29.54879 | -79.22126 | 36228 ft | 440 kts | 199° |
| 2026-04-23 03:40 | 29.48897 | -79.23643 | 36231 ft | 440 kts | 199° |
| 2026-04-23 03:40 | 29.42921 | -79.25153 | 36229 ft | 439 kts | 199° |
| 2026-04-23 03:41 | 29.36955 | -79.26666 | 36208 ft | 439 kts | 199° |
| 2026-04-23 03:41 | 29.30990 | -79.28172 | 36215 ft | 439 kts | 199° |
| 2026-04-23 03:42 | 29.25032 | -79.29670 | 36217 ft | 438 kts | 199° |
| 2026-04-23 03:42 | 29.19079 | -79.31182 | 36217 ft | 438 kts | 199° |
| 2026-04-23 03:43 | 29.13124 | -79.32683 | 36216 ft | 438 kts | 199° |
| 2026-04-23 03:43 | 29.07171 | -79.34177 | 36191 ft | 438 kts | 200° |
| 2026-04-23 03:44 | 29.01229 | -79.35680 | 36201 ft | 437 kts | 200° |
| 2026-04-23 03:44 | 28.95297 | -79.37184 | 36204 ft | 437 kts | 200° |
| 2026-04-23 03:45 | 28.89357 | -79.38665 | 36209 ft | 437 kts | 200° |
| 2026-04-23 03:45 | 28.83414 | -79.40146 | 36214 ft | 437 kts | 200° |
| 2026-04-23 03:46 | 28.77495 | -79.41631 | 36187 ft | 430 kts | 200° |
| 2026-04-23 03:46 | 28.74609 | -79.42350 | 36180 ft | 418 kts | 200° |
| 2026-04-23 03:46 | 28.71810 | -79.43045 | 36179 ft | 405 kts | 201° |
| 2026-04-23 03:47 | 28.69097 | -79.43719 | 36181 ft | 393 kts | 201° |
| 2026-04-23 03:47 | 28.66459 | -79.44375 | 36181 ft | 388 kts | 201° |
| 2026-04-23 03:47 | 28.61119 | -79.45733 | 35736 ft | 401 kts | 201° |
| 2026-04-23 03:48 | 28.58351 | -79.46441 | 34789 ft | 415 kts | 201° |
| 2026-04-23 03:48 | 28.55504 | -79.47165 | 34158 ft | 418 kts | 201° |
| 2026-04-23 03:48 | 28.52694 | -79.47853 | 33996 ft | 408 kts | 201° |
| 2026-04-23 03:48 | 28.49955 | -79.48510 | 33853 ft | 397 kts | 201° |
| 2026-04-23 03:49 | 28.47286 | -79.49152 | 33718 ft | 387 kts | 201° |
| 2026-04-23 03:49 | 28.44656 | -79.49801 | 33098 ft | 389 kts | 201° |
| 2026-04-23 03:49 | 28.42003 | -79.50473 | 32435 ft | 392 kts | 201° |
| 2026-04-23 03:49 | 28.39325 | -79.51158 | 31787 ft | 396 kts | 201° |
| 2026-04-23 03:50 | 28.36625 | -79.51844 | 31152 ft | 399 kts | 200° |
| 2026-04-23 03:50 | 28.33908 | -79.52525 | 30532 ft | 401 kts | 200° |
| 2026-04-23 03:50 | 28.31172 | -79.53201 | 29856 ft | 404 kts | 199° |
| 2026-04-23 03:50 | 28.28423 | -79.53886 | 29143 ft | 405 kts | 199° |
| 2026-04-23 03:51 | 28.25679 | -79.54608 | 28415 ft | 405 kts | 200° |
| 2026-04-23 03:51 | 28.22934 | -79.55362 | 27739 ft | 406 kts | 200° |
| 2026-04-23 03:51 | 28.20192 | -79.56127 | 27081 ft | 406 kts | 200° |
| 2026-04-23 03:51 | 28.17447 | -79.56893 | 26440 ft | 406 kts | 199° |
| 2026-04-23 03:52 | 28.14705 | -79.57651 | 25805 ft | 406 kts | 199° |
| 2026-04-23 03:52 | 28.11960 | -79.58404 | 25190 ft | 406 kts | 199° |
| 2026-04-23 03:52 | 28.09216 | -79.59147 | 24585 ft | 405 kts | 198° |
| 2026-04-23 03:52 | 28.06475 | -79.59888 | 23997 ft | 404 kts | 198° |
| 2026-04-23 03:53 | 28.03742 | -79.60629 | 23345 ft | 404 kts | 198° |
| 2026-04-23 03:53 | 28.01012 | -79.61369 | 22656 ft | 403 kts | 198° |
| 2026-04-23 03:53 | 27.98290 | -79.62106 | 21979 ft | 402 kts | 198° |
| 2026-04-23 03:53 | 27.95575 | -79.62842 | 21309 ft | 401 kts | 198° |
| 2026-04-23 03:54 | 27.92866 | -79.63577 | 20668 ft | 400 kts | 197° |
| 2026-04-23 03:54 | 27.90199 | -79.64297 | 20044 ft | 399 kts | 197° |
| 2026-04-23 03:54 | 27.87502 | -79.65024 | 19429 ft | 398 kts | 197° |
| 2026-04-23 03:54 | 27.84810 | -79.65751 | 18830 ft | 397 kts | 197° |
| 2026-04-23 03:55 | 27.82126 | -79.66478 | 18183 ft | 396 kts | 197° |
| 2026-04-23 03:55 | 27.79456 | -79.67202 | 17567 ft | 392 kts | 196° |
| 2026-04-23 03:55 | 27.76833 | -79.67909 | 17181 ft | 383 kts | 196° |
| 2026-04-23 03:55 | 27.74276 | -79.68594 | 16798 ft | 373 kts | 196° |
| 2026-04-23 03:56 | 27.71780 | -79.69267 | 16413 ft | 364 kts | 196° |
| 2026-04-23 03:56 | 27.69339 | -79.69927 | 16051 ft | 357 kts | 196° |
| 2026-04-23 03:56 | 27.66951 | -79.70571 | 15679 ft | 350 kts | 196° |
| 2026-04-23 03:56 | 27.64607 | -79.71207 | 15316 ft | 343 kts | 196° |
| 2026-04-23 03:57 | 27.62302 | -79.71835 | 14957 ft | 338 kts | 196° |
| 2026-04-23 03:57 | 27.60034 | -79.72449 | 14601 ft | 333 kts | 196° |
| 2026-04-23 03:57 | 27.57792 | -79.73052 | 14254 ft | 329 kts | 196° |
| 2026-04-23 03:57 | 27.55579 | -79.73643 | 13893 ft | 325 kts | 196° |
| 2026-04-23 03:58 | 27.53392 | -79.74227 | 13502 ft | 321 kts | 196° |
| 2026-04-23 03:58 | 27.51227 | -79.74807 | 13117 ft | 318 kts | 196° |
| 2026-04-23 03:58 | 27.49086 | -79.75382 | 12736 ft | 315 kts | 196° |
| 2026-04-23 03:58 | 27.46965 | -79.75953 | 12359 ft | 312 kts | 195° |
| 2026-04-23 03:59 | 27.44861 | -79.76519 | 11984 ft | 309 kts | 195° |
| 2026-04-23 03:59 | 27.42776 | -79.77079 | 11606 ft | 307 kts | 195° |
| 2026-04-23 03:59 | 27.40707 | -79.77634 | 11251 ft | 305 kts | 194° |
| 2026-04-23 03:59 | 27.38651 | -79.78187 | 10887 ft | 302 kts | 194° |
| 2026-04-23 04:00 | 27.36613 | -79.78736 | 10537 ft | 300 kts | 193° |
| 2026-04-23 04:00 | 27.34588 | -79.79279 | 10189 ft | 298 kts | 193° |
| 2026-04-23 04:00 | 27.32570 | -79.79819 | 9806 ft | 296 kts | 193° |
| 2026-04-23 04:00 | 27.30573 | -79.80351 | 9422 ft | 294 kts | 194° |
| 2026-04-23 04:01 | 27.28585 | -79.80880 | 9055 ft | 292 kts | 193° |
| 2026-04-23 04:01 | 27.26648 | -79.81395 | 8981 ft | 279 kts | 193° |
| 2026-04-23 04:01 | 27.24779 | -79.81886 | 8990 ft | 274 kts | 195° |
| 2026-04-23 04:01 | 27.23026 | -79.82689 | 8792 ft | 272 kts | 206° |
| 2026-04-23 04:02 | 27.21372 | -79.83586 | 8689 ft | 262 kts | 206° |
| 2026-04-23 04:02 | 27.19769 | -79.84462 | 8630 ft | 251 kts | 206° |
| 2026-04-23 04:02 | 27.18234 | -79.85304 | 8574 ft | 240 kts | 206° |
| 2026-04-23 04:02 | 27.16759 | -79.86111 | 8519 ft | 234 kts | 206° |
| 2026-04-23 04:03 | 27.15301 | -79.86909 | 8341 ft | 233 kts | 206° |
| 2026-04-23 04:03 | 27.13850 | -79.87700 | 8063 ft | 231 kts | 206° |
| 2026-04-23 04:03 | 27.12404 | -79.88491 | 7759 ft | 231 kts | 206° |
| 2026-04-23 04:03 | 27.10962 | -79.89281 | 7447 ft | 231 kts | 206° |
| 2026-04-23 04:04 | 27.09514 | -79.90074 | 7139 ft | 232 kts | 204° |
| 2026-04-23 04:04 | 27.08063 | -79.90865 | 6831 ft | 232 kts | 204° |
| 2026-04-23 04:04 | 27.06608 | -79.91659 | 6506 ft | 233 kts | 204° |
| 2026-04-23 04:04 | 27.05150 | -79.92455 | 6175 ft | 233 kts | 203° |
| 2026-04-23 04:05 | 27.03697 | -79.93250 | 5857 ft | 232 kts | 203° |
| 2026-04-23 04:05 | 27.02248 | -79.94044 | 5545 ft | 232 kts | 204° |
| 2026-04-23 04:05 | 27.00815 | -79.94871 | 5228 ft | 232 kts | 205° |
| 2026-04-23 04:05 | 26.99390 | -79.95720 | 4913 ft | 232 kts | 204° |
| 2026-04-23 04:06 | 26.97963 | -79.96577 | 4590 ft | 233 kts | 205° |
| 2026-04-23 04:06 | 26.96533 | -79.97436 | 4273 ft | 233 kts | 205° |
| 2026-04-23 04:06 | 26.95132 | -79.98338 | 4025 ft | 231 kts | 209° |
| 2026-04-23 04:06 | 26.94286 | -79.99038 | 3978 ft | 226 kts | 216° |
| 2026-04-23 04:07 | 26.93050 | -80.00123 | 3992 ft | 226 kts | 213° |
| 2026-04-23 04:07 | 26.91804 | -80.01201 | 3985 ft | 226 kts | 214° |
| 2026-04-23 04:07 | 26.90554 | -80.02275 | 3984 ft | 225 kts | 214° |
| 2026-04-23 04:07 | 26.89310 | -80.03343 | 3988 ft | 226 kts | 213° |
| 2026-04-23 04:08 | 26.88063 | -80.04411 | 3984 ft | 226 kts | 213° |
| 2026-04-23 04:08 | 26.86815 | -80.05480 | 3986 ft | 226 kts | 213° |
| 2026-04-23 04:08 | 26.85570 | -80.06548 | 3986 ft | 226 kts | 214° |
| 2026-04-23 04:08 | 26.84323 | -80.07620 | 3986 ft | 225 kts | 214° |
| 2026-04-23 04:09 | 26.83086 | -80.08692 | 3989 ft | 225 kts | 215° |
| 2026-04-23 04:09 | 26.81851 | -80.09769 | 3981 ft | 226 kts | 215° |
| 2026-04-23 04:09 | 26.80810 | -80.11093 | 3985 ft | 229 kts | 236° |
| 2026-04-23 04:09 | 26.80211 | -80.12750 | 3991 ft | 232 kts | 256° |
| 2026-04-23 04:10 | 26.79840 | -80.14504 | 3985 ft | 231 kts | 255° |
| 2026-04-23 04:10 | 26.79458 | -80.16249 | 3982 ft | 231 kts | 254° |
| 2026-04-23 04:10 | 26.79068 | -80.18007 | 3987 ft | 232 kts | 255° |
| 2026-04-23 04:10 | 26.78679 | -80.19747 | 3985 ft | 230 kts | 254° |
| 2026-04-23 04:11 | 26.78287 | -80.21498 | 3616 ft | 237 kts | 254° |
| 2026-04-23 04:11 | 26.77848 | -80.23322 | 3139 ft | 244 kts | 247° |
| 2026-04-23 04:11 | 26.77008 | -80.24916 | 2913 ft | 234 kts | 225° |
| 2026-04-23 04:11 | 26.75803 | -80.26037 | 2765 ft | 218 kts | 205° |
| 2026-04-23 04:12 | 26.74450 | -80.26627 | 2640 ft | 202 kts | 186° |
| 2026-04-23 04:12 | 26.73092 | -80.26724 | 2529 ft | 191 kts | 169° |
| 2026-04-23 04:12 | 26.71835 | -80.26404 | 2477 ft | 177 kts | 154° |
| 2026-04-23 04:12 | 26.70791 | -80.25791 | 2346 ft | 163 kts | 141° |
| 2026-04-23 04:13 | 26.69983 | -80.24990 | 2250 ft | 148 kts | 128° |
| 2026-04-23 04:13 | 26.69406 | -80.24098 | 2169 ft | 137 kts | 117° |
| 2026-04-23 04:13 | 26.69023 | -80.23145 | 2102 ft | 133 kts | 107° |
| 2026-04-23 04:13 | 26.68821 | -80.22140 | 2030 ft | 132 kts | 97° |
| 2026-04-23 04:14 | 26.68766 | -80.21112 | 1910 ft | 133 kts | 92° |
| 2026-04-23 04:14 | 26.68720 | -80.20083 | 1727 ft | 132 kts | 92° |
| 2026-04-23 04:14 | 26.68674 | -80.19058 | 1544 ft | 132 kts | 92° |
| 2026-04-23 04:14 | 26.68631 | -80.18038 | 1373 ft | 132 kts | 92° |
| 2026-04-23 04:15 | 26.68586 | -80.17020 | 1200 ft | 131 kts | 92° |
| 2026-04-23 04:15 | 26.68543 | -80.16007 | 1020 ft | 131 kts | 92° |
| 2026-04-23 04:15 | 26.68454 | -80.13957 | 680 ft | 135 kts | 95° |
| 2026-04-23 04:16 | 26.68401 | -80.12923 | 495 ft | 131 kts | 92° |
| 2026-04-23 04:16 | 26.68361 | -80.11888 | 337 ft | 131 kts | 92° |
| 2026-04-23 04:16 | 26.68320 | -80.10868 | 146 ft | 132 kts | 94° |
| 2026-04-23 04:16 | 26.68277 | -80.09865 | 27 ft | 120 kts | 93° |
| 2026-04-23 04:17 | 26.68243 | -80.09052 | 22 ft | 82 kts | 92° |
| 2026-04-23 04:17 | 26.68235 | -80.08702 | 24 ft | 26 kts | 71° |
| 2026-04-23 04:17 | 26.68334 | -80.08670 | 22 ft | 7 kts | 310° |
| 2026-04-23 04:17 | 26.68337 | -80.08675 | 22 ft | 2 kts | 303° |
| 2026-04-23 04:18 | 26.68342 | -80.08725 | 22 ft | 12 kts | 269° |
| 2026-04-23 04:18 | 26.68344 | -80.08830 | 22 ft | 15 kts | 273° |
| 2026-04-23 04:18 | 26.68350 | -80.08951 | 22 ft | 16 kts | 272° |
| 2026-04-23 04:18 | 26.68361 | -80.09064 | 22 ft | 10 kts | 287° |
| 2026-04-23 04:19 | 26.68403 | -80.09096 | 22 ft | 8 kts | 351° |
| 2026-04-23 04:19 | 26.68467 | -80.09092 | 22 ft | 10 kts | 11° |
| 2026-04-23 04:19 | 26.68542 | -80.09069 | 22 ft | 12 kts | 35° |
| 2026-04-23 04:19 | 26.68557 | -80.09026 | 22 ft | 4 kts | 95° |
| 2026-04-23 04:20 | 26.68556 | -80.09004 | 22 ft | 0 kts | 94° |